Terminal Aerodrome Forecast
Issued by NWS

Home | Current Version | Previous Version | Graphics & Text | Print | Product List | Glossary On
Versions: 1 2 3 4 5 6 7 8 9 10 11 12 13 14 15
000
FTUS43 KGRB 242335
TAFATW
TAF
KATW 242335Z 2500/2524 02012G15KT P6SM OVC012
      TEMPO 2500/2504 -RA BKN008
     FM250400 03009KT P6SM BKN015
     FM251200 01008KT P6SM BKN020
     FM251800 04011KT P6SM BKN060
     FM252200 04010KT P6SM BKN100=

USA.gov is the U.S. government's official web portal to all federal, state and local government web resources and services.